createdAt,value
2023-04-23T00:01:49.444Z,99002.09
2023-04-23T00:04:19.050Z,99003.84
2023-04-23T00:06:47.122Z,98993.31
2023-04-23T00:09:15.472Z,99000.31
2023-04-23T00:11:42.397Z,98999.91
2023-04-23T00:14:09.500Z,99000.91
2023-04-23T00:16:36.801Z,99000.91
2023-04-23T00:19:03.593Z,99002.19
2023-04-23T00:21:31.701Z,98991.41
2023-04-23T00:23:58.369Z,98995.47
2023-04-23T00:26:24.997Z,98994.34
2023-04-23T00:28:51.818Z,98990.88
2023-04-23T00:31:18.402Z,98993.59
2023-04-23T00:33:49.564Z,99001.19
2023-04-23T00:36:16.073Z,98999.66
2023-04-23T00:38:44.076Z,98999.19
2023-04-23T00:41:11.192Z,98992.25
2023-04-23T00:43:37.887Z,98992.66
2023-04-23T00:46:06.006Z,98991.78
2023-04-23T00:48:34.228Z,98985.94
2023-04-23T00:51:03.932Z,98983.34
2023-04-23T00:53:30.725Z,98982.88
2023-04-23T00:56:00.250Z,98981.88
2023-04-23T00:58:26.831Z,98987.13
2023-04-23T01:00:53.669Z,98984.66
2023-04-23T01:03:21.783Z,98978.00
2023-04-23T01:05:48.714Z,98986.53
2023-04-23T01:08:17.354Z,98983.59
2023-04-23T01:10:49.820Z,98982.41
2023-04-23T01:13:17.802Z,98981.13
2023-04-23T01:15:45.122Z,98976.94
2023-04-23T01:18:12.162Z,98978.66
2023-04-23T01:20:39.454Z,98974.88
2023-04-23T01:23:07.389Z,98980.72
2023-04-23T01:25:34.917Z,98979.66
2023-04-23T01:28:02.014Z,98977.63
2023-04-23T01:30:30.455Z,98980.03
2023-04-23T01:32:57.676Z,98975.97
2023-04-23T01:35:25.218Z,98974.16
2023-04-23T01:37:53.667Z,98973.75
2023-04-23T01:40:21.721Z,98966.09
2023-04-23T01:42:48.564Z,98976.81
2023-04-23T01:45:15.157Z,98970.47
2023-04-23T01:47:41.824Z,98975.44
2023-04-23T01:50:09.812Z,98963.31
2023-04-23T01:52:36.478Z,98978.19
2023-04-23T01:55:03.307Z,98971.28
2023-04-23T01:57:31.377Z,98977.75
2023-04-23T02:00:03.712Z,98971.03
2023-04-23T02:02:30.396Z,98974.63
2023-04-23T02:04:58.811Z,98972.41
2023-04-23T02:07:25.368Z,98963.72
2023-04-23T02:09:52.084Z,98958.41
2023-04-23T02:12:18.749Z,98962.50
2023-04-23T02:14:46.680Z,98965.31
2023-04-23T02:17:13.449Z,98959.41
2023-04-23T02:19:40.007Z,98964.88
2023-04-23T02:22:06.662Z,98962.63
2023-04-23T02:24:33.305Z,98965.50
2023-04-23T02:26:59.851Z,98965.75
2023-04-23T02:29:26.395Z,98962.53
2023-04-23T02:31:54.396Z,98964.38
2023-04-23T02:34:21.090Z,98959.78
2023-04-23T02:36:47.727Z,98964.50
2023-04-23T02:39:14.361Z,98967.25
2023-04-23T02:41:41.084Z,98962.03
2023-04-23T02:44:07.622Z,98965.38
2023-04-23T02:46:36.810Z,98960.94
2023-04-23T02:49:04.918Z,98960.44
2023-04-23T02:51:31.499Z,98959.44
2023-04-23T02:53:58.503Z,98957.94
2023-04-23T02:56:25.244Z,98960.06
2023-04-23T02:58:51.889Z,98956.44
2023-04-23T03:01:18.486Z,98953.88
2023-04-23T03:03:45.309Z,98959.56
2023-04-23T03:06:13.377Z,98952.50
2023-04-23T03:08:39.843Z,98956.94
2023-04-23T03:11:06.504Z,98954.84
2023-04-23T03:13:33.040Z,98948.78
2023-04-23T03:15:59.980Z,98954.59
2023-04-23T03:18:26.527Z,98949.72
2023-04-23T03:20:53.219Z,98941.72
2023-04-23T03:23:21.137Z,98947.03
2023-04-23T03:25:47.917Z,98936.94
2023-04-23T03:28:14.490Z,98933.34
2023-04-23T03:30:41.172Z,98936.19
2023-04-23T03:33:07.739Z,98932.81
2023-04-23T03:35:34.281Z,98932.66
2023-04-23T03:38:01.154Z,98931.09
2023-04-23T03:40:29.110Z,98924.72
2023-04-23T03:42:55.671Z,98921.88
2023-04-23T03:45:22.190Z,98932.25
2023-04-23T03:47:48.825Z,98924.13
2023-04-23T03:50:15.473Z,98925.50
2023-04-23T03:52:41.966Z,98930.19
2023-04-23T03:55:09.482Z,98923.78
2023-04-23T03:57:37.438Z,98909.53
2023-04-23T04:00:05.878Z,98912.94
2023-04-23T04:02:32.574Z,98924.97
2023-04-23T04:04:59.615Z,98923.38
2023-04-23T04:07:26.631Z,98918.66
2023-04-23T04:09:53.162Z,98927.63
2023-04-23T04:12:19.718Z,98928.59
2023-04-23T04:14:47.819Z,98932.91
2023-04-23T04:17:14.345Z,98932.94
2023-04-23T04:19:40.927Z,98929.69
2023-04-23T04:22:07.482Z,98926.75
2023-04-23T04:24:34.074Z,98927.84
2023-04-23T04:27:01.616Z,98925.03
2023-04-23T04:29:28.514Z,98920.94
2023-04-23T04:31:56.754Z,98928.94
2023-04-23T04:34:23.403Z,98928.47
2023-04-23T04:36:49.965Z,98917.19
2023-04-23T04:39:16.455Z,98916.59
2023-04-23T04:41:43.191Z,98910.91
2023-04-23T04:44:09.763Z,98915.19
2023-04-23T04:46:36.352Z,98922.72
2023-04-23T04:49:04.367Z,98921.19
2023-04-23T04:51:30.903Z,98914.28
2023-04-23T04:53:57.783Z,98925.03
2023-04-23T04:56:24.383Z,98923.63
2023-04-23T04:58:50.946Z,98921.31
2023-04-23T05:01:17.896Z,98923.25
2023-04-23T05:03:44.682Z,98926.91
2023-04-23T05:06:12.721Z,98921.66
2023-04-23T05:08:39.271Z,98918.28
2023-04-23T05:11:05.858Z,98916.94
2023-04-23T05:13:32.423Z,98921.22
2023-04-23T05:15:59.107Z,98917.00
2023-04-23T05:18:25.662Z,98925.41
2023-04-23T05:20:52.223Z,98928.63
2023-04-23T05:23:20.287Z,98931.63
2023-04-23T05:25:46.933Z,98932.47
2023-04-23T05:28:13.501Z,98928.31
2023-04-23T05:30:40.141Z,98924.53
2023-04-23T05:33:06.796Z,98931.91
2023-04-23T05:35:33.473Z,98924.28
2023-04-23T05:37:59.966Z,98925.28
2023-04-23T05:40:28.102Z,98926.84
2023-04-23T05:42:55.068Z,98917.38
2023-04-23T05:45:22.271Z,98928.16
2023-04-23T05:47:48.880Z,98928.59
2023-04-23T05:50:15.414Z,98924.97
2023-04-23T05:52:41.987Z,98918.50
2023-04-23T05:55:09.702Z,98928.13
2023-04-23T05:57:38.587Z,98932.44
2023-04-23T06:00:06.588Z,98929.88
2023-04-23T06:02:33.227Z,98931.50
2023-04-23T06:05:01.090Z,98924.72
2023-04-23T06:07:27.847Z,98926.97
2023-04-23T06:09:54.283Z,98926.28
2023-04-23T06:12:20.890Z,98923.13
2023-04-23T06:14:48.730Z,98923.41
2023-04-23T06:17:15.295Z,98929.59
2023-04-23T06:19:41.910Z,98921.22
2023-04-23T06:22:08.548Z,98923.56
2023-04-23T06:24:35.213Z,98926.09
2023-04-23T06:27:01.835Z,98923.19
2023-04-23T06:29:28.793Z,98914.53
2023-04-23T06:31:57.791Z,98915.69
2023-04-23T06:34:24.448Z,98924.19
2023-04-23T06:36:51.515Z,98912.69
2023-04-23T06:39:18.002Z,98912.16
2023-04-23T06:41:44.941Z,98909.38
2023-04-23T06:44:11.512Z,98908.59
2023-04-23T06:46:38.239Z,98902.13
2023-04-23T06:49:06.163Z,98906.00
2023-04-23T06:51:32.784Z,98900.59
2023-04-23T06:53:59.420Z,98908.72
2023-04-23T06:56:25.998Z,98905.34
2023-04-23T06:58:53.523Z,98896.38
2023-04-23T07:01:20.233Z,98898.59
2023-04-23T07:03:47.050Z,98890.09
2023-04-23T07:06:15.326Z,98895.59
2023-04-23T07:08:43.168Z,98895.28
2023-04-23T07:11:09.814Z,98904.03
2023-04-23T07:13:36.470Z,98889.44
2023-04-23T07:16:03.142Z,98893.22
2023-04-23T07:18:29.749Z,98885.00
2023-04-23T07:20:56.390Z,98881.31
2023-04-23T07:23:24.622Z,98877.19
2023-04-23T07:25:52.043Z,98870.16
2023-04-23T07:28:21.548Z,98874.47
2023-04-23T07:30:48.188Z,98872.84
2023-04-23T07:33:15.322Z,98876.56
2023-04-23T07:35:41.886Z,98875.22
2023-04-23T07:38:08.436Z,98879.03
2023-04-23T07:40:36.269Z,98878.47
2023-04-23T07:43:02.891Z,98864.25
2023-04-23T07:45:29.569Z,98866.31
2023-04-23T07:47:56.176Z,98861.41
2023-04-23T07:50:22.776Z,98872.03
2023-04-23T07:52:49.526Z,98866.78
2023-04-23T07:55:16.305Z,98861.63
2023-04-23T07:57:44.204Z,98854.03
2023-04-23T08:00:11.739Z,98860.53
2023-04-23T08:02:38.392Z,98856.84
2023-04-23T08:05:06.122Z,98858.00
2023-04-23T08:07:33.163Z,98849.50
2023-04-23T08:09:59.802Z,98851.81
2023-04-23T08:12:27.502Z,98841.66
2023-04-23T08:14:55.456Z,98844.31
2023-04-23T08:17:22.064Z,98836.31
2023-04-23T08:19:48.620Z,98834.88
2023-04-23T08:22:15.291Z,98839.66
2023-04-23T08:24:42.853Z,98837.72
2023-04-23T08:27:09.532Z,98844.09
2023-04-23T08:29:36.084Z,98838.38
2023-04-23T08:32:04.149Z,98838.25
2023-04-23T08:34:30.748Z,98841.63
2023-04-23T08:36:57.294Z,98845.66
2023-04-23T08:39:23.821Z,98845.56
2023-04-23T08:41:55.421Z,98838.41
2023-04-23T08:44:23.975Z,98846.31
2023-04-23T08:46:52.665Z,98844.78
2023-04-23T08:49:22.580Z,98838.66
2023-04-23T08:51:52.163Z,98831.25
2023-04-23T08:54:24.345Z,98836.31
2023-04-23T08:56:54.851Z,98835.50
2023-04-23T08:59:21.441Z,98832.19
2023-04-23T09:01:48.278Z,98836.28
2023-04-23T09:04:15.113Z,98833.22
2023-04-23T09:06:43.430Z,98830.34
2023-04-23T09:09:10.679Z,98825.91
2023-04-23T09:11:37.671Z,98821.78
2023-04-23T09:14:04.640Z,98818.41
2023-04-23T09:16:31.348Z,98807.44
2023-04-23T09:18:59.005Z,98817.97
2023-04-23T09:21:25.575Z,98817.19
2023-04-23T09:23:53.561Z,98815.69
2023-04-23T09:26:20.915Z,98815.19
2023-04-23T09:28:50.035Z,98811.47
2023-04-23T09:31:20.863Z,98808.75
2023-04-23T09:33:54.512Z,98811.03
2023-04-23T09:36:24.200Z,98818.28
2023-04-23T09:38:51.071Z,98810.53
2023-04-23T09:41:22.787Z,98805.78
2023-04-23T09:43:49.370Z,98808.38
2023-04-23T09:46:16.034Z,98812.28
2023-04-23T09:48:43.478Z,98801.03
2023-04-23T09:51:16.397Z,98808.44
2023-04-23T09:53:43.753Z,98811.56
2023-04-23T09:56:10.720Z,98799.34
2023-04-23T09:58:38.942Z,98792.00
2023-04-23T10:01:07.809Z,98795.75
2023-04-23T10:03:34.556Z,98784.38
2023-04-23T10:06:02.483Z,98782.97
2023-04-23T10:08:31.818Z,98780.56
2023-04-23T10:11:13.657Z,98781.53
2023-04-23T10:13:46.678Z,98782.19
2023-04-23T10:16:22.528Z,98775.44
2023-04-23T10:18:52.713Z,98766.03
2023-04-23T10:21:19.912Z,98760.81
2023-04-23T10:23:49.888Z,98767.34
2023-04-23T10:26:16.704Z,98766.50
2023-04-23T10:28:50.338Z,98762.22
2023-04-23T10:31:19.617Z,98767.31
2023-04-23T10:33:58.221Z,98762.47
2023-04-23T10:36:26.683Z,98756.09
2023-04-23T10:38:58.310Z,98759.94
2023-04-23T10:41:33.548Z,98748.56
2023-04-23T10:44:01.431Z,98737.97
2023-04-23T10:46:28.572Z,98736.06
2023-04-23T10:49:05.904Z,98728.88
2023-04-23T10:54:08.743Z,98729.06
2023-04-23T10:56:35.295Z,98723.84
2023-04-23T10:59:06.358Z,98731.22
2023-04-23T11:01:33.042Z,98724.31
2023-04-23T11:04:00.104Z,98716.75
2023-04-23T11:06:51.271Z,98728.16
2023-04-23T11:09:32.212Z,98715.47
2023-04-23T11:11:59.924Z,98723.75
2023-04-23T11:14:41.950Z,98704.78
2023-04-23T11:17:11.760Z,98708.91
2023-04-23T11:19:39.359Z,98708.84
2023-04-23T11:22:07.259Z,98704.25
2023-04-23T11:24:35.789Z,98692.53
2023-04-23T11:27:05.553Z,98689.13
2023-04-23T11:29:32.140Z,98681.41
2023-04-23T11:32:03.653Z,98679.94
2023-04-23T11:34:32.111Z,98672.19
2023-04-23T11:36:59.760Z,98683.69
2023-04-23T11:39:26.399Z,98687.13
2023-04-23T11:41:53.002Z,98687.53
2023-04-23T11:44:21.356Z,98690.91
2023-04-23T11:46:48.382Z,98686.38
2023-04-23T11:49:17.794Z,98677.13
2023-04-23T11:51:45.407Z,98669.88
2023-04-23T11:54:12.939Z,98672.19
2023-04-23T11:56:40.733Z,98659.38
2023-04-23T11:59:08.088Z,98655.56
2023-04-23T12:01:45.343Z,98649.09
2023-04-23T12:04:13.794Z,98650.16
2023-04-23T12:06:43.441Z,98651.06
2023-04-23T12:09:10.584Z,98647.16
2023-04-23T12:11:37.368Z,98649.69
2023-04-23T12:14:04.031Z,98641.41
2023-04-23T12:16:34.906Z,98643.50
2023-04-23T12:19:01.762Z,98630.63
2023-04-23T12:21:28.449Z,98623.66
2023-04-23T12:23:57.023Z,98620.22
2023-04-23T12:26:25.599Z,98624.63
2023-04-23T12:28:53.323Z,98630.94
2023-04-23T12:31:20.993Z,98618.34
2023-04-23T12:33:47.638Z,98613.19
2023-04-23T12:36:15.810Z,98609.56
2023-04-23T12:38:42.878Z,98607.03
2023-04-23T12:41:10.909Z,98601.66
2023-04-23T12:43:37.588Z,98594.72
2023-04-23T12:46:04.214Z,98590.38
2023-04-23T12:48:30.776Z,98594.88
2023-04-23T12:50:57.434Z,98585.50
2023-04-23T12:53:23.965Z,98580.72
2023-04-23T12:55:50.586Z,98582.31
2023-04-23T12:58:18.599Z,98591.69
2023-04-23T13:00:45.377Z,98593.00
2023-04-23T13:03:12.086Z,98584.50
2023-04-23T13:05:38.929Z,98571.09
2023-04-23T13:08:05.531Z,98570.56
2023-04-23T13:10:32.070Z,98566.91
2023-04-23T13:12:58.646Z,98559.59
2023-04-23T13:15:27.128Z,98563.50
2023-04-23T13:17:54.013Z,98558.09
2023-04-23T13:20:20.918Z,98548.34
2023-04-23T13:22:47.487Z,98552.91
2023-04-23T13:25:14.150Z,98555.31
2023-04-23T13:27:40.714Z,98537.41
2023-04-23T13:30:08.668Z,98534.84
2023-04-23T13:32:36.619Z,98522.88
2023-04-23T13:35:03.271Z,98518.97
2023-04-23T13:37:48.187Z,98529.28
2023-04-23T13:40:16.165Z,98526.56
2023-04-23T13:42:42.782Z,98526.56
2023-04-23T13:45:10.026Z,98525.78
2023-04-23T13:47:37.989Z,98519.66
2023-04-23T13:50:05.554Z,98509.69
2023-04-23T13:52:32.313Z,98512.31
2023-04-23T13:54:58.968Z,98508.88
2023-04-23T13:57:26.010Z,98509.81
2023-04-23T13:59:52.650Z,98504.84
2023-04-23T14:02:19.271Z,98502.53
2023-04-23T14:04:47.333Z,98492.66
2023-04-23T14:07:13.927Z,98488.19
2023-04-23T14:09:40.933Z,98483.06
2023-04-23T14:12:07.890Z,98488.69
2023-04-23T14:14:34.638Z,98473.28
2023-04-23T14:17:01.234Z,98482.25
2023-04-23T14:19:27.762Z,98468.41
2023-04-23T14:21:55.796Z,98463.69
2023-04-23T14:24:27.236Z,98452.53
2023-04-23T14:26:56.283Z,98449.25
2023-04-23T14:29:30.850Z,98446.38
2023-04-23T14:31:58.612Z,98445.06
2023-04-23T14:34:25.201Z,98440.34
2023-04-23T14:36:52.309Z,98441.13
2023-04-23T14:39:21.688Z,98430.97
2023-04-23T14:41:48.254Z,98433.22
2023-04-23T14:44:14.849Z,98424.00
2023-04-23T14:46:41.486Z,98415.34
2023-04-23T14:49:08.259Z,98408.03
2023-04-23T14:51:34.853Z,98413.22
2023-04-23T14:54:01.760Z,98403.97
2023-04-23T14:56:29.740Z,98397.31
2023-04-23T14:58:56.297Z,98396.19
2023-04-23T15:01:23.898Z,98394.91
2023-04-23T15:03:52.484Z,98384.44
2023-04-23T15:06:19.141Z,98395.00
2023-04-23T15:08:45.719Z,98391.53
2023-04-23T15:11:12.671Z,98397.25
2023-04-23T15:13:44.977Z,98399.63
2023-04-23T15:16:44.068Z,98396.53
2023-04-23T15:19:12.562Z,98403.97
2023-04-23T15:21:39.241Z,98404.47
2023-04-23T15:24:05.967Z,98409.16
2023-04-23T15:26:32.629Z,98401.75
2023-04-23T15:29:00.647Z,98402.50
2023-04-23T15:31:27.278Z,98418.19
2023-04-23T15:33:54.308Z,98402.78
2023-04-23T15:36:20.868Z,98403.84
2023-04-23T15:38:47.452Z,98408.75
2023-04-23T15:41:14.220Z,98413.75
2023-04-23T15:43:40.877Z,98413.09
2023-04-23T15:46:08.898Z,98415.16
2023-04-23T15:48:35.591Z,98418.84
2023-04-23T15:51:02.175Z,98428.28
2023-04-23T15:53:28.789Z,98431.44
2023-04-23T15:55:55.354Z,98438.66
2023-04-23T15:58:21.990Z,98439.06
2023-04-23T16:00:48.760Z,98439.00
2023-04-23T16:03:16.942Z,98436.88
2023-04-23T16:05:43.956Z,98451.88
2023-04-23T16:08:10.686Z,98445.59
2023-04-23T16:10:38.085Z,98439.59
2023-04-23T16:13:04.850Z,98443.44
2023-04-23T16:15:32.109Z,98439.03
2023-04-23T16:17:58.705Z,98431.97
2023-04-23T16:20:27.011Z,98438.66
2023-04-23T16:22:53.944Z,98420.81
2023-04-23T16:25:21.001Z,98421.69
2023-04-23T16:27:48.056Z,98414.47
2023-04-23T16:30:14.985Z,98410.00
2023-04-23T16:32:41.699Z,98424.63
2023-04-23T16:35:09.066Z,98418.09
2023-04-23T16:37:37.110Z,98413.47
2023-04-23T16:40:04.236Z,98406.81
2023-04-23T16:42:30.828Z,98409.94
2023-04-23T16:44:57.721Z,98405.63
2023-04-23T16:47:24.497Z,98409.06
2023-04-23T16:49:51.139Z,98416.31
2023-04-23T16:52:17.790Z,98409.06
2023-04-23T16:54:45.888Z,98406.31
2023-04-23T16:57:12.588Z,98398.56
2023-04-23T16:59:39.323Z,98388.97
2023-04-23T17:02:06.144Z,98391.47
2023-04-23T17:04:32.915Z,98354.94
2023-04-23T17:06:59.772Z,98342.78
2023-04-23T17:09:26.447Z,98328.97
2023-04-23T17:11:54.387Z,98331.91
2023-04-23T17:14:21.000Z,98341.84
2023-04-23T17:16:47.694Z,98352.69
2023-04-23T17:19:14.258Z,98331.28
2023-04-23T17:21:40.940Z,98328.94
2023-04-23T17:24:07.645Z,98315.09
2023-04-23T17:26:34.209Z,98315.25
2023-04-23T17:29:02.193Z,98305.72
2023-04-23T17:31:29.046Z,98311.69
2023-04-23T17:33:57.482Z,98304.00
2023-04-23T17:36:24.084Z,98301.88
2023-04-23T17:38:50.630Z,98295.72
2023-04-23T17:41:17.197Z,98279.38
2023-04-23T17:43:43.765Z,98284.88
2023-04-23T17:46:12.160Z,98287.06
2023-04-23T17:48:38.822Z,98287.06
2023-04-23T17:51:05.951Z,98282.59
2023-04-23T17:53:32.570Z,98278.25
2023-04-23T17:55:59.225Z,98270.72
2023-04-23T17:58:25.864Z,98266.25
2023-04-23T18:00:52.613Z,98259.94
2023-04-23T18:03:20.861Z,98258.84
2023-04-23T18:05:48.174Z,98250.75
2023-04-23T18:08:14.790Z,98248.41
2023-04-23T18:10:41.508Z,98250.25
2023-04-23T18:13:08.289Z,98245.69
2023-04-23T18:15:35.040Z,98239.81
2023-04-23T18:18:01.694Z,98253.41
2023-04-23T18:20:29.734Z,98238.66
2023-04-23T18:22:56.418Z,98241.44
2023-04-23T18:25:22.998Z,98238.50
2023-04-23T18:27:49.609Z,98241.28
2023-04-23T18:30:16.393Z,98238.97
2023-04-23T18:32:48.308Z,98240.84
2023-04-23T18:35:15.136Z,98235.19
2023-04-23T18:37:48.289Z,98235.78
2023-04-23T18:40:14.876Z,98241.53
2023-04-23T18:42:41.602Z,98239.03
2023-04-23T18:45:08.940Z,98243.63
2023-04-23T18:47:38.349Z,98232.06
2023-04-23T18:50:09.723Z,98238.47
2023-04-23T18:52:36.425Z,98236.47
2023-04-23T18:55:06.259Z,98240.38
2023-04-23T18:57:32.904Z,98231.78
2023-04-23T18:59:59.541Z,98235.72
2023-04-23T19:02:35.045Z,98235.22
2023-04-23T19:05:02.700Z,98228.25
2023-04-23T19:07:29.433Z,98224.44
2023-04-23T19:09:56.090Z,98224.44
2023-04-23T19:12:24.093Z,98228.13
2023-04-23T19:14:50.730Z,98238.66
2023-04-23T19:17:18.791Z,98230.19
2023-04-23T19:19:45.850Z,98249.03
2023-04-23T19:22:12.633Z,98245.78
2023-04-23T19:24:39.331Z,98243.56
2023-04-23T19:27:06.093Z,98263.75
2023-04-23T19:29:34.131Z,98256.63
2023-04-23T19:32:01.312Z,98241.97
2023-04-23T19:34:28.002Z,98245.66
2023-04-23T19:36:54.789Z,98253.91
2023-04-23T19:39:21.492Z,98253.53
2023-04-23T19:41:48.185Z,98249.00
2023-04-23T19:44:14.820Z,98255.66
2023-04-23T19:46:42.904Z,98249.09
2023-04-23T19:49:09.654Z,98242.06
2023-04-23T19:51:36.688Z,98256.75
2023-04-23T19:54:03.899Z,98249.91
2023-04-23T19:56:30.765Z,98248.63
2023-04-23T19:58:57.552Z,98253.31
2023-04-23T20:01:24.335Z,98264.56
2023-04-23T20:03:52.343Z,98270.09
2023-04-23T20:06:18.981Z,98267.19
2023-04-23T20:08:45.542Z,98270.22
2023-04-23T20:11:12.171Z,98275.38
2023-04-23T20:13:38.717Z,98273.00
2023-04-23T20:16:05.332Z,98281.50
2023-04-23T20:18:31.973Z,98284.41
2023-04-23T20:20:59.936Z,98290.38
2023-04-23T20:23:26.528Z,98287.00
2023-04-23T20:25:53.186Z,98293.13
2023-04-23T20:28:19.769Z,98308.00
2023-04-23T20:30:46.412Z,98308.84
2023-04-23T20:33:13.006Z,98312.41
2023-04-23T20:35:39.956Z,98311.41
2023-04-23T20:38:07.932Z,98298.06
2023-04-23T20:40:34.917Z,98298.53
2023-04-23T20:43:01.720Z,98299.53
2023-04-23T20:45:28.317Z,98306.09
2023-04-23T20:47:54.931Z,98302.09
2023-04-23T20:50:21.580Z,98300.94
2023-04-23T20:52:48.304Z,98296.72
2023-04-23T20:55:16.293Z,98297.41
2023-04-23T20:57:43.043Z,98303.78
2023-04-23T21:00:10.167Z,98304.69
2023-04-23T21:02:37.531Z,98299.44
2023-04-23T21:05:05.894Z,98311.75
2023-04-23T21:07:32.509Z,98299.22
2023-04-23T21:09:59.144Z,98309.66
2023-04-23T21:12:27.729Z,98309.84
2023-04-23T21:14:55.089Z,98309.53
2023-04-23T21:17:21.780Z,98311.09
2023-04-23T21:19:48.352Z,98308.91
2023-04-23T21:22:14.799Z,98295.00
2023-04-23T21:24:41.417Z,98296.78
2023-04-23T21:27:09.209Z,98298.44
2023-04-23T21:29:37.414Z,98308.44
2023-04-23T21:32:04.082Z,98308.00
2023-04-23T21:34:30.660Z,98308.66
2023-04-23T21:36:57.384Z,98308.28
2023-04-23T21:39:23.936Z,98317.09
2023-04-23T21:41:50.551Z,98309.81
2023-04-23T21:44:17.144Z,98305.81
2023-04-23T21:46:45.279Z,98296.41
2023-04-23T21:49:11.928Z,98316.50
2023-04-23T21:51:38.740Z,98311.41
2023-04-23T21:54:05.581Z,98315.91
2023-04-23T21:56:32.433Z,98309.00
2023-04-23T21:58:59.061Z,98311.53
2023-04-23T22:01:25.738Z,98303.03
2023-04-23T22:03:53.848Z,98305.69
2023-04-23T22:06:20.529Z,98311.28
2023-04-23T22:08:47.242Z,98308.84
2023-04-23T22:11:13.979Z,98313.41
2023-04-23T22:13:40.546Z,98314.22
2023-04-23T22:16:20.370Z,98314.00
2023-04-23T22:18:55.402Z,98314.97
2023-04-23T22:21:22.183Z,98310.34
2023-04-23T22:23:48.784Z,98302.38
2023-04-23T22:26:15.367Z,98303.19
2023-04-23T22:28:43.131Z,98304.50
2023-04-23T22:31:09.756Z,98300.47
2023-04-23T22:33:36.619Z,98303.78
2023-04-23T22:36:05.007Z,98316.19
2023-04-23T22:38:32.536Z,98304.81
2023-04-23T22:40:59.324Z,98312.38
2023-04-23T22:43:25.893Z,98312.69
2023-04-23T22:45:52.823Z,98310.22
2023-04-23T22:48:19.630Z,98309.66
2023-04-23T22:50:46.214Z,98315.16
2023-04-23T22:53:14.194Z,98309.41
2023-04-23T22:55:40.784Z,98313.56
2023-04-23T22:58:07.308Z,98306.44
2023-04-23T23:00:34.024Z,98305.00
2023-04-23T23:03:00.690Z,98302.06
2023-04-23T23:05:27.388Z,98296.81
2023-04-23T23:07:53.938Z,98300.47
2023-04-23T23:10:22.985Z,98308.31
2023-04-23T23:12:49.867Z,98299.25
2023-04-23T23:15:16.648Z,98295.00
2023-04-23T23:17:43.278Z,98285.88
2023-04-23T23:20:10.816Z,98291.75
2023-04-23T23:22:38.566Z,98295.41
2023-04-23T23:25:06.034Z,98295.88
2023-04-23T23:27:33.987Z,98290.19
2023-04-23T23:30:00.581Z,98300.03
2023-04-23T23:32:27.415Z,98289.75
2023-04-23T23:34:53.976Z,98301.69
2023-04-23T23:37:20.798Z,98299.69
2023-04-23T23:39:47.593Z,98294.00
2023-04-23T23:42:14.584Z,98303.63
2023-04-23T23:44:42.563Z,98304.25
2023-04-23T23:47:09.290Z,98306.53
2023-04-23T23:49:35.881Z,98300.50
2023-04-23T23:52:02.748Z,98304.56
2023-04-23T23:54:29.373Z,98313.91
2023-04-23T23:56:56.005Z,98309.47
2023-04-23T23:59:22.790Z,98301.31
